createdAt,value
2018-12-08T17:01:30.162Z,988.51
2018-12-08T17:02:30.319Z,988.49
2018-12-08T17:03:30.103Z,988.45
2018-12-08T17:04:30.890Z,988.45
2018-12-08T17:05:30.013Z,988.44
2018-12-08T17:06:31.855Z,988.52
2018-12-08T17:07:30.502Z,988.53
2018-12-08T17:08:30.935Z,988.43
2018-12-08T17:09:29.978Z,988.40
2018-12-08T17:10:31.868Z,988.31
2018-12-08T17:11:30.947Z,988.46
2018-12-08T17:12:32.458Z,988.43
2018-12-08T17:13:29.987Z,988.36
2018-12-08T17:14:29.890Z,988.37
2018-12-08T17:15:29.874Z,988.34
2018-12-08T17:16:29.866Z,988.34
2018-12-08T17:17:29.894Z,988.31
2018-12-08T17:18:29.890Z,988.38
2018-12-08T17:19:30.163Z,988.36
2018-12-08T17:20:30.229Z,988.32
2018-12-08T17:21:29.810Z,988.28
2018-12-08T17:22:29.813Z,988.32
2018-12-08T17:23:29.811Z,988.27
2018-12-08T17:24:29.905Z,988.27
2018-12-08T17:26:39.054Z,988.34
2018-12-08T17:27:39.800Z,988.31
2018-12-08T17:28:38.958Z,988.35
2018-12-08T17:29:38.972Z,988.32
2018-12-08T17:30:38.983Z,988.20
2018-12-08T17:31:38.925Z,988.17
2018-12-08T17:32:39.079Z,988.19
2018-12-08T17:33:38.984Z,988.16
2018-12-08T17:34:39.732Z,988.17
2018-12-08T17:35:38.916Z,988.08
2018-12-08T17:36:38.947Z,988.02
2018-12-08T17:37:39.042Z,988.08
2018-12-08T17:38:39.476Z,988.02
2018-12-08T17:39:38.879Z,988.07
2018-12-08T17:40:38.846Z,987.97
2018-12-08T17:41:38.830Z,987.96
2018-12-08T17:42:39.124Z,987.90
2018-12-08T17:43:39.025Z,987.91
2018-12-08T17:44:38.832Z,987.89
2018-12-08T17:45:38.865Z,987.80
2018-12-08T17:46:38.797Z,987.86
2018-12-08T17:47:38.756Z,987.82
2018-12-08T17:48:38.769Z,987.74
2018-12-08T17:49:38.783Z,987.69
2018-12-08T17:50:39.282Z,987.65
2018-12-08T17:51:39.746Z,987.67
2018-12-08T17:52:38.705Z,987.65
2018-12-08T17:53:38.788Z,987.60
2018-12-08T17:54:38.750Z,987.58
2018-12-08T17:55:38.672Z,987.58
2018-12-08T17:56:39.459Z,987.53
2018-12-08T17:57:38.693Z,987.49
2018-12-08T17:58:38.654Z,987.45
2018-12-08T17:59:38.631Z,987.42
2018-12-08T18:00:38.695Z,987.30
2018-12-08T18:01:38.662Z,987.30
2018-12-08T18:02:39.418Z,987.33
2018-12-08T18:03:38.630Z,987.29
2018-12-08T18:04:38.574Z,987.28
2018-12-08T18:05:39.704Z,987.24
2018-12-08T18:06:38.579Z,987.21
2018-12-08T18:07:38.585Z,987.25
2018-12-08T18:08:38.754Z,987.22
2018-12-08T18:09:39.754Z,987.18
2018-12-08T18:10:38.602Z,987.16
2018-12-08T18:11:38.496Z,987.14
2018-12-08T18:12:38.708Z,987.12
2018-12-08T18:13:38.476Z,987.08
2018-12-08T18:14:39.850Z,987.03
2018-12-08T18:15:38.456Z,987.02
2018-12-08T18:16:38.455Z,987.01
2018-12-08T18:17:38.444Z,986.90
2018-12-08T18:18:38.830Z,986.93
2018-12-08T18:19:38.446Z,986.97
2018-12-08T18:20:38.516Z,986.94
2018-12-08T18:21:39.248Z,986.80
2018-12-08T18:22:39.306Z,986.74
2018-12-08T18:23:38.453Z,986.65
2018-12-08T18:24:38.396Z,986.64
2018-12-08T18:25:38.399Z,986.64
2018-12-08T18:26:38.500Z,986.61
2018-12-08T18:27:38.417Z,986.62
2018-12-08T18:28:38.341Z,986.52
2018-12-08T18:29:38.377Z,986.56
2018-12-08T18:30:38.377Z,986.49
2018-12-08T18:31:38.316Z,986.48
2018-12-08T18:32:39.769Z,986.40
2018-12-08T18:33:38.339Z,986.39
2018-12-08T18:34:39.322Z,986.31
2018-12-08T18:35:38.311Z,986.32
2018-12-08T18:36:38.283Z,986.28
2018-12-08T18:37:38.311Z,986.32
2018-12-08T18:38:38.354Z,986.23
2018-12-08T18:39:38.646Z,986.21
2018-12-08T18:40:38.209Z,986.22
2018-12-08T18:41:38.180Z,986.18
2018-12-08T18:42:38.185Z,986.20
2018-12-08T18:43:38.210Z,986.13
2018-12-08T18:44:38.326Z,986.19
2018-12-08T18:45:38.202Z,986.14
2018-12-08T18:46:39.093Z,986.16
2018-12-08T18:47:38.129Z,986.09
2018-12-08T18:48:38.174Z,986.03
2018-12-08T18:49:38.134Z,985.98
2018-12-08T18:50:38.466Z,986.07
2018-12-08T18:51:38.141Z,986.00
2018-12-08T18:52:38.111Z,986.04
2018-12-08T18:53:38.167Z,986.00
2018-12-08T18:54:38.739Z,985.95
2018-12-08T18:55:38.074Z,985.87
2018-12-08T18:56:38.138Z,985.91
2018-12-08T18:57:38.035Z,985.78
2018-12-08T18:58:38.189Z,985.79
2018-12-08T18:59:39.168Z,985.77
2018-12-08T19:00:38.102Z,985.73
2018-12-08T19:01:37.987Z,985.79
2018-12-08T19:02:38.959Z,985.79
2018-12-08T19:03:38.732Z,985.72
2018-12-08T19:04:37.995Z,985.74
2018-12-08T19:05:38.059Z,985.68
2018-12-08T19:06:38.815Z,985.66
2018-12-08T19:07:37.952Z,985.73
2018-12-08T19:08:39.034Z,985.68
2018-12-08T19:09:37.988Z,985.67
2018-12-08T19:10:38.702Z,985.60
2018-12-08T19:11:37.907Z,985.64
2018-12-08T19:12:38.362Z,985.58
2018-12-08T19:13:44.728Z,985.56
2018-12-08T19:14:38.780Z,985.47
2018-12-08T19:15:38.754Z,985.57
2018-12-08T19:16:37.931Z,985.58
2018-12-08T19:17:37.824Z,985.48
2018-12-08T19:18:38.365Z,985.45
2018-12-08T19:19:37.775Z,985.39
2018-12-08T19:20:38.784Z,985.42
2018-12-08T19:21:38.667Z,985.38
2018-12-08T19:22:37.837Z,985.44
2018-12-08T19:23:43.542Z,985.45
2018-12-08T19:24:38.746Z,985.36
2018-12-08T19:25:37.861Z,985.35
2018-12-08T19:26:38.304Z,985.34
2018-12-08T19:27:37.780Z,985.41
2018-12-08T19:28:37.737Z,985.39
2018-12-08T19:29:37.727Z,985.38
2018-12-08T19:30:38.227Z,985.35
2018-12-08T19:31:37.668Z,985.36
2018-12-08T19:32:37.808Z,985.28
2018-12-08T19:33:37.682Z,985.22
2018-12-08T19:34:37.605Z,985.20
2018-12-08T19:35:37.680Z,985.21
2018-12-08T19:36:37.644Z,985.04
2018-12-08T19:37:38.011Z,985.08
2018-12-08T19:38:37.855Z,985.06
2018-12-08T19:39:37.582Z,985.00
2018-12-08T19:40:37.712Z,985.06
2018-12-08T19:41:37.620Z,984.95
2018-12-08T19:42:39.553Z,984.97
2018-12-08T19:43:37.731Z,984.92
2018-12-08T19:44:39.040Z,984.95
2018-12-08T19:45:37.548Z,984.85
2018-12-08T19:46:37.523Z,984.86
2018-12-08T19:47:37.533Z,984.85
2018-12-08T19:48:37.562Z,984.84
2018-12-08T19:49:37.568Z,984.82
2018-12-08T19:50:37.774Z,984.92
2018-12-08T19:51:37.988Z,984.72
2018-12-08T19:52:37.944Z,984.73
2018-12-08T19:53:37.454Z,984.74
2018-12-08T19:54:37.466Z,984.72
2018-12-08T19:55:37.460Z,984.71
2018-12-08T19:56:37.604Z,984.61
2018-12-08T19:57:37.395Z,984.53
2018-12-08T19:58:37.531Z,984.56
2018-12-08T19:59:37.331Z,984.47
2018-12-08T20:00:37.397Z,984.51
2018-12-08T20:01:37.355Z,984.43
2018-12-08T20:02:38.643Z,984.37
2018-12-08T20:03:37.350Z,984.42
2018-12-08T20:04:37.281Z,984.34
2018-12-08T20:05:37.313Z,984.24
2018-12-08T20:06:37.321Z,984.23
2018-12-08T20:07:37.349Z,984.25
2018-12-08T20:08:37.352Z,984.23
2018-12-08T20:09:37.314Z,984.14
2018-12-08T20:10:37.362Z,984.13
2018-12-08T20:11:37.258Z,984.20
2018-12-08T20:12:37.258Z,983.98
2018-12-08T20:13:37.193Z,983.92
2018-12-08T20:14:37.345Z,983.93
2018-12-08T20:15:37.157Z,983.90
2018-12-08T20:16:37.346Z,983.92
2018-12-08T20:17:37.217Z,983.84
2018-12-08T20:18:37.247Z,983.78
2018-12-08T20:19:37.151Z,983.72
2018-12-08T20:20:37.331Z,983.81
2018-12-08T20:21:37.237Z,983.84
2018-12-08T20:22:37.466Z,983.70
2018-12-08T20:23:37.103Z,983.75
2018-12-08T20:24:37.751Z,983.63
2018-12-08T20:25:37.702Z,983.58
2018-12-08T20:26:38.031Z,983.55
2018-12-08T20:27:37.084Z,983.49
2018-12-08T20:28:37.727Z,983.50
2018-12-08T20:29:37.073Z,983.45
2018-12-08T20:30:37.830Z,983.43
2018-12-08T20:31:37.007Z,983.38
2018-12-08T20:32:37.225Z,983.44
2018-12-08T20:33:36.986Z,983.34
2018-12-08T20:34:37.492Z,983.38
2018-12-08T20:35:37.740Z,983.23
2018-12-08T20:36:36.966Z,983.19
2018-12-08T20:37:37.719Z,983.24
2018-12-08T20:38:37.384Z,983.15
2018-12-08T20:39:37.806Z,983.03
2018-12-08T20:40:36.954Z,983.15
2018-12-08T20:41:36.878Z,983.01
2018-12-08T20:42:36.870Z,983.11
2018-12-08T20:43:36.896Z,983.02
2018-12-08T20:44:37.178Z,983.01
2018-12-08T20:45:36.966Z,982.97
2018-12-08T20:46:38.049Z,982.89
2018-12-08T20:47:37.642Z,982.97
2018-12-08T20:48:36.894Z,982.91
2018-12-08T20:49:37.151Z,982.86
2018-12-08T20:50:37.731Z,982.84
2018-12-08T20:51:36.815Z,982.88
2018-12-08T20:52:37.146Z,982.85
2018-12-08T20:53:36.755Z,982.72
2018-12-08T20:54:36.807Z,982.62
2018-12-08T20:55:38.075Z,982.56
2018-12-08T20:56:36.762Z,982.54
2018-12-08T20:57:37.703Z,982.40
2018-12-08T20:58:36.777Z,982.40
2018-12-08T20:59:36.787Z,982.36
2018-12-08T21:00:36.734Z,982.11
2018-12-08T21:01:36.838Z,982.12
2018-12-08T21:02:36.745Z,982.07
2018-12-08T21:03:36.673Z,982.02
2018-12-08T21:04:36.698Z,981.98
2018-12-08T21:05:37.184Z,982.05
2018-12-08T21:06:36.712Z,981.99
2018-12-08T21:07:36.680Z,981.98
2018-12-08T21:08:36.698Z,981.84
2018-12-08T21:09:36.611Z,981.87
2018-12-08T21:10:36.596Z,981.89
2018-12-08T21:11:36.591Z,981.97
2018-12-08T21:12:37.667Z,981.91
2018-12-08T21:13:36.622Z,981.94
2018-12-08T21:14:36.553Z,982.02
2018-12-08T21:15:36.538Z,981.83
2018-12-08T21:16:36.694Z,981.75
2018-12-08T21:17:36.550Z,981.89
2018-12-08T21:18:36.522Z,981.76
2018-12-08T21:19:36.655Z,981.74
2018-12-08T21:20:36.551Z,981.71
2018-12-08T21:21:36.632Z,981.77
2018-12-08T21:22:36.552Z,981.67
2018-12-08T21:23:36.589Z,981.58
2018-12-08T21:24:36.487Z,981.70
2018-12-08T21:25:36.479Z,981.54
2018-12-08T21:26:36.449Z,981.50
2018-12-08T21:27:36.417Z,981.40
2018-12-08T21:28:36.443Z,981.38
2018-12-08T21:29:36.419Z,981.43
2018-12-08T21:30:36.418Z,981.46
2018-12-08T21:31:36.809Z,981.37
2018-12-08T21:32:36.348Z,981.47
2018-12-08T21:33:36.318Z,981.40
2018-12-08T21:34:36.339Z,981.38
2018-12-08T21:35:36.342Z,981.32
2018-12-08T21:36:36.788Z,981.13
2018-12-08T21:37:36.707Z,981.18
2018-12-08T21:38:36.340Z,981.20
2018-12-08T21:39:36.276Z,981.14
2018-12-08T21:40:36.370Z,981.14
2018-12-08T21:41:36.246Z,981.21
2018-12-08T21:42:36.249Z,981.16
2018-12-08T21:43:36.947Z,981.10
2018-12-08T21:44:36.219Z,981.19
2018-12-08T21:45:36.303Z,981.08
2018-12-08T21:46:36.333Z,981.08
2018-12-08T21:47:36.235Z,980.90
2018-12-08T21:48:36.255Z,980.89
2018-12-08T21:49:36.447Z,980.90
2018-12-08T21:50:36.576Z,981.04
2018-12-08T21:51:36.174Z,980.82
2018-12-08T21:52:36.749Z,980.78
2018-12-08T21:53:36.291Z,980.72
2018-12-08T21:54:36.101Z,980.74
2018-12-08T21:55:36.348Z,980.89
2018-12-08T21:56:36.426Z,980.72
2018-12-08T21:57:36.136Z,980.78
2018-12-08T21:58:36.045Z,980.78
2018-12-08T21:59:36.704Z,980.70
2018-12-08T22:00:36.025Z,980.69
2018-12-08T22:01:36.258Z,980.62
2018-12-08T22:02:36.703Z,980.64
2018-12-08T22:03:36.485Z,980.61
2018-12-08T22:04:35.980Z,980.53
2018-12-08T22:05:35.984Z,980.62
2018-12-08T22:06:35.994Z,980.30
2018-12-08T22:07:37.299Z,980.49
2018-12-08T22:08:35.981Z,980.37
2018-12-08T22:09:35.932Z,980.29
2018-12-08T22:10:36.274Z,980.33
2018-12-08T22:11:35.994Z,980.31
2018-12-08T22:12:35.897Z,980.27
2018-12-08T22:13:36.217Z,980.29
2018-12-08T22:14:35.874Z,980.26
2018-12-08T22:15:35.908Z,980.16
2018-12-08T22:16:35.847Z,980.13
2018-12-08T22:17:36.322Z,980.15
2018-12-08T22:18:35.890Z,980.15
2018-12-08T22:19:35.899Z,980.12
2018-12-08T22:20:35.859Z,980.05
2018-12-08T22:21:35.832Z,980.06
2018-12-08T22:22:35.894Z,980.07
2018-12-08T22:23:35.821Z,980.02
2018-12-08T22:24:36.283Z,979.96
2018-12-08T22:25:36.157Z,979.94
2018-12-08T22:26:35.771Z,979.99
2018-12-08T22:27:35.904Z,979.97
2018-12-08T22:28:36.787Z,979.97
2018-12-08T22:29:35.729Z,979.91
2018-12-08T22:30:35.718Z,979.83
2018-12-08T22:31:36.168Z,979.84
2018-12-08T22:32:35.681Z,980.01
2018-12-08T22:33:35.684Z,979.87
2018-12-08T22:34:35.662Z,979.94
2018-12-08T22:35:35.642Z,979.91
2018-12-08T22:36:35.642Z,979.99
2018-12-08T22:37:35.679Z,979.80
2018-12-08T22:38:36.651Z,979.95
2018-12-08T22:39:35.625Z,979.86
2018-12-08T22:40:35.628Z,979.99
2018-12-08T22:41:35.579Z,980.02
2018-12-08T22:42:35.668Z,980.02
2018-12-08T22:43:35.648Z,980.06
2018-12-08T22:44:35.544Z,980.11
2018-12-08T22:45:35.591Z,980.09
2018-12-08T22:46:35.523Z,980.06
2018-12-08T22:47:35.588Z,980.06
2018-12-08T22:48:35.507Z,980.05
2018-12-08T22:49:35.572Z,980.07
2018-12-08T22:50:35.480Z,980.02
2018-12-08T22:51:35.494Z,980.09
2018-12-08T22:52:35.499Z,979.96
2018-12-08T22:53:35.451Z,979.94
2018-12-08T22:54:35.438Z,979.84
2018-12-08T22:55:35.504Z,979.93
2018-12-08T22:56:35.415Z,979.96
2018-12-08T22:57:35.411Z,979.90
2018-12-08T22:58:35.515Z,979.86
2018-12-08T22:59:35.385Z,979.78
2018-12-08T23:00:35.371Z,979.82
2018-12-08T23:01:35.508Z,979.73
2018-12-08T23:02:35.868Z,979.74
2018-12-08T23:03:35.364Z,979.66
2018-12-08T23:04:35.375Z,979.64
2018-12-08T23:05:35.363Z,979.57
2018-12-08T23:06:35.305Z,979.54
2018-12-08T23:07:35.331Z,979.58
2018-12-08T23:08:35.308Z,979.47
2018-12-08T23:09:35.277Z,979.43
2018-12-08T23:10:35.339Z,979.46
2018-12-08T23:11:35.382Z,979.46
2018-12-08T23:12:35.264Z,979.40
2018-12-08T23:13:35.270Z,979.38
2018-12-08T23:14:35.681Z,979.38
2018-12-08T23:15:35.232Z,979.42
2018-12-08T23:16:35.197Z,979.45
2018-12-08T23:17:35.188Z,979.30
2018-12-08T23:18:35.181Z,979.29
2018-12-08T23:19:35.229Z,979.31
2018-12-08T23:20:35.154Z,979.21
2018-12-08T23:21:35.143Z,979.28
2018-12-08T23:22:35.131Z,979.33
2018-12-08T23:23:35.676Z,979.24
2018-12-08T23:24:35.660Z,979.16
2018-12-08T23:25:35.178Z,979.26
2018-12-08T23:26:35.657Z,979.19
2018-12-08T23:27:35.145Z,979.12
2018-12-08T23:28:35.130Z,979.13
2018-12-08T23:29:35.067Z,979.19
2018-12-08T23:30:35.077Z,979.20
2018-12-08T23:31:35.085Z,979.13
2018-12-08T23:32:35.238Z,979.07
2018-12-08T23:33:36.099Z,979.13
2018-12-08T23:34:37.853Z,979.08
2018-12-08T23:35:35.703Z,979.03
2018-12-08T23:36:34.984Z,979.15
2018-12-08T23:37:35.021Z,979.08
2018-12-08T23:38:34.973Z,979.13
2018-12-08T23:39:38.976Z,979.09
2018-12-08T23:40:34.938Z,978.80
2018-12-08T23:41:34.924Z,978.96
2018-12-08T23:42:35.658Z,978.94
2018-12-08T23:43:34.950Z,979.01
2018-12-08T23:44:34.892Z,979.09
2018-12-08T23:45:35.618Z,979.12
2018-12-08T23:46:34.870Z,979.16
2018-12-08T23:47:34.888Z,979.11
2018-12-08T23:48:34.848Z,979.05
2018-12-08T23:49:34.884Z,979.00
2018-12-08T23:50:34.828Z,978.96
2018-12-08T23:51:34.822Z,978.96
2018-12-08T23:52:34.807Z,978.97
2018-12-08T23:53:35.617Z,978.91
2018-12-08T23:54:34.785Z,978.93
2018-12-08T23:55:34.982Z,978.95
2018-12-08T23:56:34.762Z,978.84
2018-12-08T23:57:34.751Z,978.83
2018-12-08T23:58:35.214Z,978.84
2018-12-08T23:59:34.729Z,978.79
